Terminal Aerodrome Forecast
Issued by NWS Cleveland, OH

Home | Current Version | Previous Version | Graphics & Text | Print | Product List | Glossary On
Versions: 1 2 3 4 5 6 7 8 9 10 11 12 13 14 15 16 17 18 19 20 21 22 23 24 25 26 27 28 29 30
000
FTUS41 KCLE 081732
TAFCLE
TAF
KCLE 081732Z 0818/0924 21014G22KT P6SM SCT250
     FM082100 21010KT P6SM BKN250
     FM091800 21011KT P6SM VCSH OVC045
     FM092000 21010KT 3SM -SN OVC025=

USA.gov is the U.S. government's official web portal to all federal, state and local government web resources and services.